createdAt,value
2022-11-05T00:00:06.388Z,1003.9
2022-11-05T00:01:09.563Z,1003.9
2022-11-05T00:02:13.314Z,1003.8
2022-11-05T00:03:16.813Z,1003.8
2022-11-05T00:04:20.327Z,1003.9
2022-11-05T00:05:32.923Z,1003.9
2022-11-05T00:06:35.721Z,1003.9
2022-11-05T00:07:40.144Z,1003.9
2022-11-05T00:08:43.211Z,1003.9
2022-11-05T00:09:47.091Z,1004
2022-11-05T00:12:08.504Z,1003.9
2022-11-05T00:13:12.716Z,1003.9
2022-11-05T00:14:16.476Z,1004
2022-11-05T00:15:19.505Z,1004
2022-11-05T00:16:22.656Z,1004
2022-11-05T00:17:25.858Z,1004
2022-11-05T00:18:28.838Z,1004
2022-11-05T00:19:32.303Z,1004
2022-11-05T00:20:36.062Z,1004
2022-11-05T00:21:39.403Z,1004.1
2022-11-05T00:22:43.198Z,1004.1
2022-11-05T00:23:46.192Z,1004.1
2022-11-05T00:24:49.858Z,1004.1
2022-11-05T00:25:52.571Z,1004.1
2022-11-05T00:26:55.008Z,1004.1
2022-11-05T00:27:58.800Z,1004.1
2022-11-05T00:29:01.311Z,1004.1
2022-11-05T00:30:03.988Z,1004.1
2022-11-05T00:31:07.132Z,1004.1
2022-11-05T00:32:09.666Z,1004.1
2022-11-05T00:33:13.090Z,1004.1
2022-11-05T00:34:15.717Z,1004.1
2022-11-05T00:35:18.148Z,1004.1
2022-11-05T00:36:21.710Z,1004.1
2022-11-05T00:37:24.414Z,1004.2
2022-11-05T00:38:27.392Z,1004.2
2022-11-05T00:39:29.627Z,1004.2
2022-11-05T00:40:33.464Z,1004.2
2022-11-05T00:41:37.149Z,1004.2
2022-11-05T00:42:40.034Z,1004.2
2022-11-05T00:43:43.485Z,1004.2
2022-11-05T00:44:46.483Z,1004.2
2022-11-05T00:45:49.937Z,1004.2
2022-11-05T00:47:00.038Z,1004.2
2022-11-05T00:48:02.623Z,1004.2
2022-11-05T00:49:06.657Z,1004.2
2022-11-05T00:50:09.105Z,1004.2
2022-11-05T00:51:12.350Z,1004.3
2022-11-05T00:52:16.471Z,1004.2
2022-11-05T00:53:18.911Z,1004.2
2022-11-05T00:54:22.380Z,1004.3
2022-11-05T00:55:25.256Z,1004.2
2022-11-05T00:56:28.679Z,1004.3
2022-11-05T00:57:31.561Z,1004.3
2022-11-05T00:58:34.163Z,1004.3
2022-11-05T00:59:37.167Z,1004.3
2022-11-05T01:00:39.611Z,1004.2
2022-11-05T01:01:43.259Z,1004.3
2022-11-05T01:02:47.485Z,1004.2
2022-11-05T01:03:52.297Z,1004.3
2022-11-05T01:04:55.553Z,1004.3
2022-11-05T01:05:58.926Z,1004.3
2022-11-05T01:07:01.735Z,1004.3
2022-11-05T01:08:05.321Z,1004.3
2022-11-05T01:09:08.747Z,1004.3
2022-11-05T01:10:11.548Z,1004.3
2022-11-05T01:11:14.085Z,1004.4
2022-11-05T01:12:17.645Z,1004.4
2022-11-05T01:13:21.420Z,1004.4
2022-11-05T01:14:24.299Z,1004.4
2022-11-05T01:15:27.839Z,1004.4
2022-11-05T01:16:30.103Z,1004.4
2022-11-05T01:17:33.198Z,1004.4
2022-11-05T01:18:36.301Z,1004.4
2022-11-05T01:19:39.039Z,1004.5
2022-11-05T01:20:42.612Z,1004.5
2022-11-05T01:21:45.049Z,1004.5
2022-11-05T01:22:48.275Z,1004.5
2022-11-05T01:23:51.754Z,1004.5
2022-11-05T01:24:54.558Z,1004.5
2022-11-05T01:25:57.923Z,1004.6
2022-11-05T01:27:00.993Z,1004.6
2022-11-05T01:28:04.273Z,1004.6
2022-11-05T01:29:07.472Z,1004.6
2022-11-05T01:30:10.933Z,1004.6
2022-11-05T01:31:14.353Z,1004.6
2022-11-05T01:32:17.175Z,1004.6
2022-11-05T01:33:19.979Z,1004.6
2022-11-05T01:34:22.707Z,1004.6
2022-11-05T01:35:24.626Z,1004.6
2022-11-05T01:36:27.468Z,1004.6
2022-11-05T01:37:30.282Z,1004.6
2022-11-05T01:38:33.020Z,1004.6
2022-11-05T01:39:36.137Z,1004.6
2022-11-05T01:40:39.581Z,1004.6
2022-11-05T01:41:42.384Z,1004.7
2022-11-05T01:42:45.061Z,1004.7
2022-11-05T01:43:48.850Z,1004.7
2022-11-05T01:44:51.937Z,1004.7
2022-11-05T01:45:55.591Z,1004.7
2022-11-05T01:46:59.048Z,1004.8
2022-11-05T01:48:02.777Z,1004.8
2022-11-05T01:49:05.237Z,1004.8
2022-11-05T01:50:08.883Z,1004.8
2022-11-05T01:51:11.985Z,1004.8
2022-11-05T01:52:15.834Z,1004.8
2022-11-05T01:53:19.002Z,1004.8
2022-11-05T01:54:21.519Z,1004.8
2022-11-05T01:55:25.079Z,1004.7
2022-11-05T01:56:28.786Z,1004.8
2022-11-05T01:57:31.677Z,1004.7
2022-11-05T01:58:34.545Z,1004.7
2022-11-05T01:59:38.283Z,1004.8
2022-11-05T02:00:41.004Z,1004.8
2022-11-05T02:01:44.354Z,1004.8
2022-11-05T02:02:48.332Z,1004.8
2022-11-05T02:03:52.256Z,1004.8
2022-11-05T02:04:55.393Z,1004.7
2022-11-05T02:05:58.908Z,1004.8
2022-11-05T02:07:01.924Z,1004.8
2022-11-05T02:08:05.315Z,1004.8
2022-11-05T02:09:08.115Z,1004.8
2022-11-05T02:10:11.112Z,1004.7
2022-11-05T02:11:14.662Z,1004.8
2022-11-05T02:12:17.369Z,1004.8
2022-11-05T02:13:20.991Z,1004.8
2022-11-05T02:14:23.501Z,1004.8
2022-11-05T02:15:27.247Z,1004.8
2022-11-05T02:16:29.755Z,1004.8
2022-11-05T02:17:32.849Z,1004.8
2022-11-05T02:18:36.328Z,1004.8
2022-11-05T02:19:39.677Z,1004.8
2022-11-05T02:20:42.490Z,1004.8
2022-11-05T02:21:54.707Z,1004.9
2022-11-05T02:22:57.902Z,1004.8
2022-11-05T02:24:01.000Z,1004.9
2022-11-05T02:25:03.726Z,1004.9
2022-11-05T02:26:06.438Z,1004.9
2022-11-05T02:27:09.935Z,1004.9
2022-11-05T02:28:13.584Z,1004.9
2022-11-05T02:29:16.756Z,1004.8
2022-11-05T02:30:20.024Z,1004.8
2022-11-05T02:31:23.706Z,1004.8
2022-11-05T02:32:26.789Z,1004.9
2022-11-05T02:33:29.329Z,1004.8
2022-11-05T02:34:33.096Z,1004.8
2022-11-05T02:35:36.169Z,1004.8
2022-11-05T02:36:38.699Z,1004.8
2022-11-05T02:37:41.899Z,1004.8
2022-11-05T02:38:45.190Z,1004.8
2022-11-05T02:39:48.537Z,1004.8
2022-11-05T02:40:51.701Z,1004.8
2022-11-05T02:41:54.506Z,1004.9
2022-11-05T02:43:07.231Z,1004.9
2022-11-05T02:44:11.433Z,1004.9
2022-11-05T02:45:14.813Z,1004.9
2022-11-05T02:46:18.046Z,1004.9
2022-11-05T02:47:21.516Z,1004.9
2022-11-05T02:48:24.592Z,1004.9
2022-11-05T02:49:26.754Z,1004.8
2022-11-05T02:50:30.173Z,1004.8
2022-11-05T02:51:33.891Z,1004.8
2022-11-05T02:52:37.260Z,1004.8
2022-11-05T02:53:39.700Z,1004.8
2022-11-05T02:54:42.236Z,1004.8
2022-11-05T02:55:45.143Z,1004.8
2022-11-05T02:56:48.582Z,1004.9
2022-11-05T02:57:50.915Z,1004.8
2022-11-05T02:58:54.317Z,1004.9
2022-11-05T02:59:56.840Z,1004.8
2022-11-05T03:01:00.306Z,1004.9
2022-11-05T03:02:03.424Z,1004.8
2022-11-05T03:03:07.954Z,1004.9
2022-11-05T03:04:12.541Z,1004.8
2022-11-05T03:05:15.500Z,1004.8
2022-11-05T03:06:18.025Z,1004.8
2022-11-05T03:07:21.179Z,1004.9
2022-11-05T03:08:24.765Z,1004.8
2022-11-05T03:09:27.768Z,1004.9
2022-11-05T03:10:30.761Z,1004.9
2022-11-05T03:11:34.219Z,1004.9
2022-11-05T03:12:37.212Z,1005
2022-11-05T03:13:40.357Z,1005
2022-11-05T03:14:43.754Z,1005
2022-11-05T03:15:47.762Z,1005
2022-11-05T03:16:50.551Z,1005
2022-11-05T03:17:52.707Z,1005
2022-11-05T03:18:56.368Z,1005
2022-11-05T03:19:59.153Z,1005
2022-11-05T03:21:02.214Z,1005
2022-11-05T03:22:05.660Z,1005
2022-11-05T03:23:09.391Z,1005
2022-11-05T03:24:14.179Z,1005
2022-11-05T03:25:17.190Z,1005
2022-11-05T03:26:20.281Z,1005
2022-11-05T03:27:23.364Z,1005
2022-11-05T03:28:26.826Z,1005
2022-11-05T03:29:29.268Z,1005
2022-11-05T03:30:33.036Z,1005
2022-11-05T03:31:35.942Z,1005
2022-11-05T03:32:39.285Z,1005
2022-11-05T03:33:42.559Z,1005
2022-11-05T03:34:45.471Z,1005
2022-11-05T03:35:47.979Z,1005.1
2022-11-05T03:36:50.844Z,1005.1
2022-11-05T03:37:53.988Z,1005.1
2022-11-05T03:38:56.789Z,1005.1
2022-11-05T03:40:00.352Z,1005.1
2022-11-05T03:41:03.691Z,1005.1
2022-11-05T03:42:06.872Z,1005.1
2022-11-05T03:43:11.131Z,1005.1
2022-11-05T03:44:16.445Z,1005.1
2022-11-05T03:45:19.507Z,1005.1
2022-11-05T03:46:22.348Z,1005.1
2022-11-05T03:47:25.066Z,1005.1
2022-11-05T03:48:27.645Z,1005.1
2022-11-05T03:49:30.807Z,1005.1
2022-11-05T03:50:41.804Z,1005.1
2022-11-05T03:51:45.181Z,1005.1
2022-11-05T03:52:47.795Z,1005.1
2022-11-05T03:53:50.586Z,1005.1
2022-11-05T03:54:53.500Z,1005.1
2022-11-05T03:55:57.298Z,1005.1
2022-11-05T03:57:01.042Z,1005.2
2022-11-05T03:58:04.050Z,1005.2
2022-11-05T03:59:06.771Z,1005.2
2022-11-05T04:00:09.034Z,1005.2
2022-11-05T04:01:11.550Z,1005.2
2022-11-05T04:02:14.988Z,1005.2
2022-11-05T04:03:18.615Z,1005.2
2022-11-05T04:04:21.410Z,1005.3
2022-11-05T04:05:24.513Z,1005.3
2022-11-05T04:06:28.013Z,1005.3
2022-11-05T04:07:30.728Z,1005.3
2022-11-05T04:08:33.622Z,1005.4
2022-11-05T04:09:36.537Z,1005.4
2022-11-05T04:10:39.061Z,1005.5
2022-11-05T04:11:42.489Z,1005.5
2022-11-05T04:12:45.796Z,1005.5
2022-11-05T04:13:48.981Z,1005.5
2022-11-05T04:14:51.993Z,1005.6
2022-11-05T04:15:55.194Z,1005.6
2022-11-05T04:16:58.297Z,1005.6
2022-11-05T04:18:01.925Z,1005.6
2022-11-05T04:19:05.371Z,1005.7
2022-11-05T04:20:08.523Z,1005.7
2022-11-05T04:21:11.979Z,1005.7
2022-11-05T04:22:15.189Z,1005.6
2022-11-05T04:23:18.022Z,1005.7
2022-11-05T04:24:21.196Z,1005.7
2022-11-05T04:25:23.799Z,1005.6
2022-11-05T04:26:26.364Z,1005.7
2022-11-05T04:27:29.448Z,1005.7
2022-11-05T04:28:32.442Z,1005.6
2022-11-05T04:29:35.535Z,1005.6
2022-11-05T04:30:38.255Z,1005.6
2022-11-05T04:31:41.052Z,1005.6
2022-11-05T04:32:44.243Z,1005.6
2022-11-05T04:33:47.454Z,1005.7
2022-11-05T04:34:50.245Z,1005.6
2022-11-05T04:35:52.493Z,1005.6
2022-11-05T04:36:55.377Z,1005.6
2022-11-05T04:37:58.627Z,1005.7
2022-11-05T04:39:01.347Z,1005.6
2022-11-05T04:40:04.426Z,1005.6
2022-11-05T04:41:06.734Z,1005.6
2022-11-05T04:42:09.812Z,1005.6
2022-11-05T04:43:15.870Z,1005.7
2022-11-05T04:44:21.911Z,1005.7
2022-11-05T04:45:24.813Z,1005.7
2022-11-05T04:46:27.627Z,1005.7
2022-11-05T04:47:31.276Z,1005.7
2022-11-05T04:48:33.866Z,1005.7
2022-11-05T04:49:37.623Z,1005.7
2022-11-05T04:50:39.854Z,1005.7
2022-11-05T04:51:43.312Z,1005.7
2022-11-05T04:52:46.314Z,1005.7
2022-11-05T04:53:49.875Z,1005.7
2022-11-05T04:54:52.875Z,1005.7
2022-11-05T04:55:56.326Z,1005.7
2022-11-05T04:56:59.121Z,1005.7
2022-11-05T04:58:01.634Z,1005.8
2022-11-05T04:59:04.153Z,1005.8
2022-11-05T05:00:06.901Z,1005.8
2022-11-05T05:01:09.712Z,1005.8
2022-11-05T05:02:13.357Z,1005.8
2022-11-05T05:03:16.543Z,1005.9
2022-11-05T05:04:19.098Z,1005.8
2022-11-05T05:05:23.024Z,1005.8
2022-11-05T05:06:26.289Z,1005.9
2022-11-05T05:07:29.381Z,1005.9
2022-11-05T05:08:31.951Z,1005.9
2022-11-05T05:09:35.297Z,1005.9
2022-11-05T05:10:38.724Z,1005.9
2022-11-05T05:11:41.437Z,1005.9
2022-11-05T05:12:44.960Z,1005.9
2022-11-05T05:13:47.756Z,1005.9
2022-11-05T05:14:51.239Z,1005.9
2022-11-05T05:15:53.970Z,1005.9
2022-11-05T05:16:56.496Z,1005.9
2022-11-05T05:17:59.696Z,1006
2022-11-05T05:19:02.203Z,1006
2022-11-05T05:20:04.995Z,1006
2022-11-05T05:21:08.852Z,1006
2022-11-05T05:22:11.838Z,1006
2022-11-05T05:23:14.402Z,1006
2022-11-05T05:24:17.152Z,1006
2022-11-05T05:25:20.881Z,1006
2022-11-05T05:26:24.056Z,1006
2022-11-05T05:27:27.129Z,1006
2022-11-05T05:28:29.923Z,1006
2022-11-05T05:29:32.647Z,1006
2022-11-05T05:30:35.056Z,1006
2022-11-05T05:31:38.524Z,1006
2022-11-05T05:32:41.818Z,1006
2022-11-05T05:33:44.915Z,1006.1
2022-11-05T05:34:47.540Z,1006
2022-11-05T05:35:50.156Z,1006.1
2022-11-05T05:36:53.978Z,1006.1
2022-11-05T05:37:57.051Z,1006.1
2022-11-05T05:38:59.762Z,1006.1
2022-11-05T05:40:02.853Z,1006.1
2022-11-05T05:41:06.584Z,1006.1
2022-11-05T05:42:09.731Z,1006.1
2022-11-05T05:43:13.651Z,1006.1
2022-11-05T05:44:15.984Z,1006.1
2022-11-05T05:45:19.403Z,1006.2
2022-11-05T05:46:22.004Z,1006.2
2022-11-05T05:47:26.031Z,1006.1
2022-11-05T05:48:29.121Z,1006.2
2022-11-05T05:49:32.416Z,1006.2
2022-11-05T05:50:35.583Z,1006.2
2022-11-05T05:51:38.454Z,1006.2
2022-11-05T05:52:41.871Z,1006.2
2022-11-05T05:53:44.943Z,1006.2
2022-11-05T05:54:48.114Z,1006.2
2022-11-05T05:55:50.834Z,1006.2
2022-11-05T05:56:54.230Z,1006.2
2022-11-05T05:57:57.577Z,1006.2
2022-11-05T05:59:00.898Z,1006.3
2022-11-05T06:00:04.634Z,1006.3
2022-11-05T06:01:07.439Z,1006.3
2022-11-05T06:02:15.897Z,1006.2
2022-11-05T06:03:19.951Z,1006.2
2022-11-05T06:04:23.789Z,1006.3
2022-11-05T06:05:26.977Z,1006.3
2022-11-05T06:06:29.856Z,1006.3
2022-11-05T06:07:37.817Z,1006.3
2022-11-05T06:08:41.542Z,1006.3
2022-11-05T06:09:43.979Z,1006.4
2022-11-05T06:10:47.001Z,1006.4
2022-11-05T06:11:50.504Z,1006.3
2022-11-05T06:12:54.282Z,1006.4
2022-11-05T06:13:57.738Z,1006.3
2022-11-05T06:15:01.083Z,1006.3
2022-11-05T06:16:04.253Z,1006.4
2022-11-05T06:17:06.966Z,1006.4
2022-11-05T06:18:09.474Z,1006.3
2022-11-05T06:19:12.250Z,1006.4
2022-11-05T06:20:15.332Z,1006.4
2022-11-05T06:21:18.794Z,1006.4
2022-11-05T06:22:21.430Z,1006.4
2022-11-05T06:23:24.146Z,1006.4
2022-11-05T06:24:26.786Z,1006.4
2022-11-05T06:25:29.849Z,1006.4
2022-11-05T06:26:35.898Z,1006.4
2022-11-05T06:27:38.618Z,1006.4
2022-11-05T06:28:42.478Z,1006.4
2022-11-05T06:29:45.634Z,1006.4
2022-11-05T06:30:48.586Z,1006.4
2022-11-05T06:31:50.743Z,1006.4
2022-11-05T06:32:53.444Z,1006.5
2022-11-05T06:33:57.101Z,1006.5
2022-11-05T06:35:00.123Z,1006.6
2022-11-05T06:36:03.210Z,1006.6
2022-11-05T06:37:06.335Z,1006.6
2022-11-05T06:38:09.125Z,1006.6
2022-11-05T06:39:12.860Z,1006.6
2022-11-05T06:40:16.060Z,1006.6
2022-11-05T06:41:18.224Z,1006.7
2022-11-05T06:42:21.608Z,1006.7
2022-11-05T06:43:24.234Z,1006.7
2022-11-05T06:44:27.627Z,1006.6
2022-11-05T06:45:30.128Z,1006.7
2022-11-05T06:46:33.503Z,1006.7
2022-11-05T06:47:36.216Z,1006.7
2022-11-05T06:48:39.000Z,1006.7
2022-11-05T06:49:42.359Z,1006.7
2022-11-05T06:50:45.192Z,1006.7
2022-11-05T06:51:47.641Z,1006.7
2022-11-05T06:52:50.639Z,1006.7
2022-11-05T06:53:53.070Z,1006.7
2022-11-05T06:54:55.678Z,1006.7
2022-11-05T06:55:58.605Z,1006.8
2022-11-05T06:57:00.922Z,1006.8
2022-11-05T06:58:03.761Z,1006.8
2022-11-05T06:59:06.625Z,1006.8
2022-11-05T07:00:10.361Z,1006.8
2022-11-05T07:01:13.655Z,1006.8
2022-11-05T07:02:17.259Z,1006.8
2022-11-05T07:03:20.321Z,1006.8
2022-11-05T07:04:23.660Z,1006.8
2022-11-05T07:05:26.733Z,1006.8
2022-11-05T07:06:37.058Z,1006.9
2022-11-05T07:07:40.716Z,1006.9
2022-11-05T07:08:43.727Z,1006.9
2022-11-05T07:09:47.348Z,1006.9
2022-11-05T07:10:50.474Z,1006.9
2022-11-05T07:11:54.235Z,1006.9
2022-11-05T07:12:57.577Z,1006.9
2022-11-05T07:14:10.936Z,1006.9
2022-11-05T07:15:13.909Z,1006.9
2022-11-05T07:16:16.724Z,1006.9
2022-11-05T07:17:19.512Z,1006.9
2022-11-05T07:18:22.232Z,1006.9
2022-11-05T07:19:25.298Z,1006.9
2022-11-05T07:20:34.628Z,1006.9
2022-11-05T07:21:38.216Z,1006.9
2022-11-05T07:22:41.202Z,1006.9
2022-11-05T07:23:44.855Z,1006.9
2022-11-05T07:24:47.391Z,1006.9
2022-11-05T07:25:51.040Z,1006.9
2022-11-05T07:26:54.130Z,1006.9
2022-11-05T07:27:57.950Z,1007
2022-11-05T07:29:01.028Z,1007
2022-11-05T07:30:04.322Z,1007
2022-11-05T07:31:07.848Z,1007
2022-11-05T07:32:10.723Z,1007
2022-11-05T07:33:15.068Z,1007
2022-11-05T07:34:18.255Z,1007
2022-11-05T07:35:21.049Z,1007.1
2022-11-05T07:36:23.871Z,1007
2022-11-05T07:37:26.126Z,1007
2022-11-05T07:38:29.851Z,1007
2022-11-05T07:39:32.600Z,1007
2022-11-05T07:40:35.701Z,1007.1
2022-11-05T07:41:38.224Z,1007.1
2022-11-05T07:42:41.780Z,1007.1
2022-11-05T07:43:45.563Z,1007.1
2022-11-05T07:44:49.012Z,1007.1
2022-11-05T07:45:52.010Z,1007.1
2022-11-05T07:46:55.709Z,1007.1
2022-11-05T07:47:58.428Z,1007.1
2022-11-05T07:49:01.262Z,1007.1
2022-11-05T07:50:04.068Z,1007.1
2022-11-05T07:51:07.548Z,1007.1
2022-11-05T07:52:10.624Z,1007.1
2022-11-05T07:53:14.839Z,1007.1
2022-11-05T07:54:18.063Z,1007.1
2022-11-05T07:55:20.953Z,1007.1
2022-11-05T07:56:24.316Z,1007.2
2022-11-05T07:57:26.567Z,1007.1
2022-11-05T07:58:29.941Z,1007.1
2022-11-05T07:59:33.151Z,1007.2
2022-11-05T08:00:35.800Z,1007.1
2022-11-05T08:01:40.098Z,1007.2
2022-11-05T08:02:45.234Z,1007.2
2022-11-05T08:03:49.476Z,1007.2
2022-11-05T08:04:53.003Z,1007.2
2022-11-05T08:05:56.092Z,1007.2
2022-11-05T08:06:59.437Z,1007.2
2022-11-05T08:08:02.766Z,1007.2
2022-11-05T08:09:06.424Z,1007.2
2022-11-05T08:10:09.029Z,1007.2
2022-11-05T08:11:12.690Z,1007.2
2022-11-05T08:12:14.853Z,1007.2
2022-11-05T08:13:17.925Z,1007.2
2022-11-05T08:14:20.714Z,1007.2
2022-11-05T08:15:24.134Z,1007.1
2022-11-05T08:16:26.928Z,1007.1
2022-11-05T08:17:29.800Z,1007.2
2022-11-05T08:18:33.285Z,1007.1
2022-11-05T08:19:35.804Z,1007.1
2022-11-05T08:20:39.264Z,1007.1
2022-11-05T08:21:42.050Z,1007.1
2022-11-05T08:22:44.708Z,1007.1
2022-11-05T08:23:47.864Z,1007.1
2022-11-05T08:24:50.147Z,1007.2
2022-11-05T08:25:52.861Z,1007.2
2022-11-05T08:26:56.267Z,1007.2
2022-11-05T08:27:59.828Z,1007.2
2022-11-05T08:29:02.986Z,1007.3
2022-11-05T08:30:06.417Z,1007.3
2022-11-05T08:31:09.086Z,1007.3
2022-11-05T08:32:12.320Z,1007.3
2022-11-05T08:33:15.693Z,1007.2
2022-11-05T08:34:19.563Z,1007.3
2022-11-05T08:35:21.995Z,1007.3
2022-11-05T08:36:24.537Z,1007.3
2022-11-05T08:37:27.414Z,1007.3
2022-11-05T08:38:30.858Z,1007.3
2022-11-05T08:39:33.571Z,1007.3
2022-11-05T08:40:36.303Z,1007.3
2022-11-05T08:41:39.699Z,1007.3
2022-11-05T08:42:43.161Z,1007.3
2022-11-05T08:43:46.241Z,1007.3
2022-11-05T08:44:48.389Z,1007.4
2022-11-05T08:45:51.835Z,1007.4
2022-11-05T08:46:55.488Z,1007.3
2022-11-05T08:47:58.567Z,1007.3
2022-11-05T08:49:02.195Z,1007.3
2022-11-05T08:50:05.781Z,1007.3
2022-11-05T08:51:08.886Z,1007.3
2022-11-05T08:52:11.889Z,1007.3
2022-11-05T08:53:15.544Z,1007.3
2022-11-05T08:54:19.091Z,1007.4
2022-11-05T08:55:21.674Z,1007.4
2022-11-05T08:56:24.789Z,1007.4
2022-11-05T08:57:28.024Z,1007.3
2022-11-05T08:58:31.437Z,1007.3
2022-11-05T08:59:34.157Z,1007.4
2022-11-05T09:00:37.606Z,1007.3
2022-11-05T09:01:41.170Z,1007.4
2022-11-05T09:02:45.222Z,1007.3
2022-11-05T09:03:49.467Z,1007.3
2022-11-05T09:04:51.812Z,1007.3
2022-11-05T09:05:54.373Z,1007.3
2022-11-05T09:06:56.742Z,1007.3
2022-11-05T09:08:01.851Z,1007.3
2022-11-05T09:09:04.935Z,1007.4
2022-11-05T09:10:07.455Z,1007.3
2022-11-05T09:11:10.325Z,1007.3
2022-11-05T09:12:13.791Z,1007.4
2022-11-05T09:13:20.852Z,1007.3
2022-11-05T09:14:26.099Z,1007.4
2022-11-05T09:15:28.919Z,1007.4
2022-11-05T09:16:31.722Z,1007.4
2022-11-05T09:17:34.859Z,1007.3
2022-11-05T09:18:38.065Z,1007.4
2022-11-05T09:19:41.322Z,1007.4
2022-11-05T09:20:44.330Z,1007.4
2022-11-05T09:21:48.247Z,1007.4
2022-11-05T09:22:51.699Z,1007.4
2022-11-05T09:23:55.052Z,1007.4
2022-11-05T09:24:58.479Z,1007.4
2022-11-05T09:26:01.885Z,1007.4
2022-11-05T09:27:05.431Z,1007.4
2022-11-05T09:28:08.481Z,1007.4
2022-11-05T09:29:18.641Z,1007.4
2022-11-05T09:30:22.411Z,1007.5
2022-11-05T09:31:25.707Z,1007.5
2022-11-05T09:32:28.404Z,1007.4
2022-11-05T09:33:31.563Z,1007.5
2022-11-05T09:34:35.048Z,1007.5
2022-11-05T09:35:38.115Z,1007.5
2022-11-05T09:36:41.460Z,1007.5
2022-11-05T09:37:47.919Z,1007.5
2022-11-05T09:38:50.803Z,1007.5
2022-11-05T09:39:54.028Z,1007.5
2022-11-05T09:40:57.540Z,1007.5
2022-11-05T09:42:00.343Z,1007.5
2022-11-05T09:43:03.419Z,1007.5
2022-11-05T09:44:06.788Z,1007.5
2022-11-05T09:45:09.753Z,1007.5
2022-11-05T09:46:13.441Z,1007.6
2022-11-05T09:47:16.472Z,1007.5
2022-11-05T09:48:19.001Z,1007.6
2022-11-05T09:49:21.879Z,1007.6
2022-11-05T09:50:25.128Z,1007.6
2022-11-05T09:51:28.784Z,1007.6
2022-11-05T09:52:32.199Z,1007.6
2022-11-05T09:53:35.943Z,1007.6
2022-11-05T09:54:39.018Z,1007.6
2022-11-05T09:55:41.182Z,1007.6
2022-11-05T09:56:44.172Z,1007.6
2022-11-05T09:57:47.692Z,1007.6
2022-11-05T09:58:50.138Z,1007.6
2022-11-05T09:59:53.422Z,1007.7
2022-11-05T10:00:56.179Z,1007.6
2022-11-05T10:02:00.128Z,1007.7
2022-11-05T10:03:04.613Z,1007.7
2022-11-05T10:04:07.397Z,1007.6
2022-11-05T10:05:11.317Z,1007.6
2022-11-05T10:06:15.234Z,1007.7
2022-11-05T10:07:18.034Z,1007.7
2022-11-05T10:08:21.105Z,1007.7
2022-11-05T10:09:24.312Z,1007.7
2022-11-05T10:10:27.578Z,1007.7
2022-11-05T10:11:30.294Z,1007.7
2022-11-05T10:12:33.004Z,1007.7
2022-11-05T10:13:35.777Z,1007.7
2022-11-05T10:14:38.851Z,1007.7
2022-11-05T10:15:42.574Z,1007.7
2022-11-05T10:16:45.375Z,1007.7
2022-11-05T10:17:48.421Z,1007.7
2022-11-05T10:18:52.163Z,1007.8
2022-11-05T10:19:55.516Z,1007.8
2022-11-05T10:20:57.979Z,1007.8
2022-11-05T10:22:07.575Z,1007.7
2022-11-05T10:23:11.732Z,1007.7
2022-11-05T10:24:16.291Z,1007.7
2022-11-05T10:25:19.509Z,1007.7
2022-11-05T10:26:22.580Z,1007.7
2022-11-05T10:27:25.670Z,1007.7
2022-11-05T10:28:29.016Z,1007.7
2022-11-05T10:29:32.428Z,1007.7
2022-11-05T10:30:35.264Z,1007.7
2022-11-05T10:31:38.727Z,1007.7
2022-11-05T10:32:41.265Z,1007.7
2022-11-05T10:33:44.651Z,1007.7
2022-11-05T10:34:47.784Z,1007.7
2022-11-05T10:35:51.014Z,1007.7
2022-11-05T10:36:54.078Z,1007.7
2022-11-05T10:37:57.627Z,1007.7
2022-11-05T10:39:00.065Z,1007.6
2022-11-05T10:40:03.418Z,1007.6
2022-11-05T10:41:07.315Z,1007.6
2022-11-05T10:42:10.581Z,1007.7
2022-11-05T10:43:14.635Z,1007.7
2022-11-05T10:44:19.530Z,1007.7
2022-11-05T10:45:22.875Z,1007.8
2022-11-05T10:46:25.954Z,1007.8
2022-11-05T10:47:29.040Z,1007.8
2022-11-05T10:48:32.387Z,1007.7
2022-11-05T10:49:39.447Z,1007.7
2022-11-05T10:50:42.464Z,1007.7
2022-11-05T10:51:45.657Z,1007.7
2022-11-05T10:52:49.039Z,1007.8
2022-11-05T10:53:52.652Z,1007.8
2022-11-05T10:55:05.005Z,1007.8
2022-11-05T10:56:07.441Z,1007.8
2022-11-05T10:57:10.898Z,1007.8
2022-11-05T10:58:13.894Z,1007.8
2022-11-05T10:59:17.292Z,1007.9
2022-11-05T11:00:20.690Z,1007.8
2022-11-05T11:01:23.790Z,1007.9
2022-11-05T11:02:27.138Z,1007.8
2022-11-05T11:03:31.224Z,1007.9
2022-11-05T11:04:38.545Z,1007.8
2022-11-05T11:05:42.144Z,1007.9
2022-11-05T11:06:45.908Z,1007.9
2022-11-05T11:07:48.511Z,1007.9
2022-11-05T11:08:51.621Z,1007.9
2022-11-05T11:09:54.535Z,1007.9
2022-11-05T11:10:57.996Z,1007.9
2022-11-05T11:12:00.992Z,1007.9
2022-11-05T11:13:04.536Z,1007.9
2022-11-05T11:14:06.975Z,1007.9
2022-11-05T11:15:10.078Z,1008
2022-11-05T11:16:13.247Z,1008
2022-11-05T11:17:16.322Z,1007.9
2022-11-05T11:18:19.035Z,1007.9
2022-11-05T11:19:22.407Z,1007.9
2022-11-05T11:20:25.795Z,1008
2022-11-05T11:21:28.935Z,1008
2022-11-05T11:22:32.313Z,1008
2022-11-05T11:23:34.867Z,1008
2022-11-05T11:24:37.401Z,1007.9
2022-11-05T11:25:40.869Z,1008
2022-11-05T11:26:43.326Z,1008
2022-11-05T11:27:46.046Z,1008
2022-11-05T11:28:49.794Z,1007.9
2022-11-05T11:29:52.112Z,1007.9
2022-11-05T11:30:55.497Z,1007.9
2022-11-05T11:31:58.572Z,1007.9
2022-11-05T11:33:01.755Z,1007.9
2022-11-05T11:34:04.197Z,1007.9
2022-11-05T11:35:07.556Z,1008
2022-11-05T11:36:10.108Z,1007.9
2022-11-05T11:37:19.825Z,1008
2022-11-05T11:38:22.857Z,1008
2022-11-05T11:39:25.926Z,1008
2022-11-05T11:40:28.435Z,1008
2022-11-05T11:41:32.146Z,1008
2022-11-05T11:42:35.220Z,1008
2022-11-05T11:43:38.841Z,1008
2022-11-05T11:44:42.463Z,1008
2022-11-05T11:45:47.117Z,1007.9
2022-11-05T11:46:50.116Z,1008
2022-11-05T11:47:53.108Z,1007.9
2022-11-05T11:48:55.982Z,1007.9
2022-11-05T11:49:58.433Z,1007.9
2022-11-05T11:51:01.175Z,1007.9
2022-11-05T11:52:04.164Z,1007.9
2022-11-05T11:53:06.630Z,1007.9
2022-11-05T11:54:10.094Z,1007.9
2022-11-05T11:55:13.047Z,1007.8
2022-11-05T11:56:17.060Z,1007.9
2022-11-05T11:57:21.335Z,1007.8
2022-11-05T11:58:24.414Z,1007.8
2022-11-05T12:00:08.071Z,1007.9
2022-11-05T12:01:13.180Z,1007.8
2022-11-05T12:02:16.873Z,1007.8
2022-11-05T12:03:21.577Z,1007.8
2022-11-05T12:04:25.743Z,1007.8
2022-11-05T12:05:29.158Z,1007.8
2022-11-05T12:06:32.449Z,1007.8
2022-11-05T12:07:35.160Z,1007.8
2022-11-05T12:08:45.730Z,1007.8
2022-11-05T12:10:08.686Z,1007.8
2022-11-05T12:11:10.650Z,1007.9
2022-11-05T12:12:13.804Z,1007.9
2022-11-05T12:13:17.194Z,1007.8
2022-11-05T12:14:20.469Z,1007.9
2022-11-05T12:15:23.464Z,1007.8
2022-11-05T12:16:27.461Z,1007.9
2022-11-05T12:17:29.549Z,1007.9
2022-11-05T12:18:31.986Z,1007.8
2022-11-05T12:19:34.447Z,1007.8
2022-11-05T12:20:36.678Z,1007.8
2022-11-05T12:21:53.618Z,1007.8
2022-11-05T12:22:56.667Z,1007.7
2022-11-05T12:24:00.038Z,1007.8
2022-11-05T12:25:03.097Z,1007.8
2022-11-05T12:26:05.831Z,1007.8
2022-11-05T12:27:08.349Z,1007.8
2022-11-05T12:28:11.410Z,1007.8
2022-11-05T12:29:19.959Z,1007.8
2022-11-05T12:30:23.331Z,1007.8
2022-11-05T12:31:26.033Z,1007.8
2022-11-05T12:32:29.425Z,1007.8
2022-11-05T12:33:33.031Z,1007.8
2022-11-05T12:34:35.196Z,1007.8
2022-11-05T12:35:40.539Z,1007.8
2022-11-05T12:37:00.637Z,1007.8
2022-11-05T12:38:03.734Z,1007.8
2022-11-05T12:39:07.346Z,1007.8
2022-11-05T12:40:09.912Z,1007.8
2022-11-05T12:41:12.719Z,1007.8
2022-11-05T12:42:15.598Z,1007.8
2022-11-05T12:43:19.216Z,1007.8
2022-11-05T12:44:22.490Z,1007.8
2022-11-05T12:45:25.578Z,1007.7
2022-11-05T12:46:28.685Z,1007.7
2022-11-05T12:47:32.411Z,1007.8
2022-11-05T12:48:37.886Z,1007.8
2022-11-05T12:49:41.163Z,1007.8
2022-11-05T12:50:43.882Z,1007.9
2022-11-05T12:51:47.175Z,1007.8
2022-11-05T12:52:50.070Z,1007.8
2022-11-05T12:53:53.456Z,1007.8
2022-11-05T12:54:56.287Z,1007.9
2022-11-05T12:56:00.023Z,1007.8
2022-11-05T12:57:03.404Z,1007.9
2022-11-05T12:58:06.484Z,1007.9
2022-11-05T12:59:09.361Z,1007.8
2022-11-05T13:00:12.634Z,1007.8
2022-11-05T13:01:15.475Z,1007.8
2022-11-05T13:02:19.417Z,1007.8
2022-11-05T13:03:23.529Z,1007.8
2022-11-05T13:04:26.590Z,1007.8
2022-11-05T13:05:29.697Z,1007.7
2022-11-05T13:06:32.833Z,1007.8
2022-11-05T13:07:35.638Z,1007.7
2022-11-05T13:08:38.473Z,1007.7
2022-11-05T13:09:41.270Z,1007.8
2022-11-05T13:10:44.637Z,1007.8
2022-11-05T13:11:48.320Z,1007.8
2022-11-05T13:12:51.181Z,1007.9
2022-11-05T13:13:54.252Z,1007.9
2022-11-05T13:14:56.764Z,1007.9
2022-11-05T13:16:00.248Z,1007.9
2022-11-05T13:17:03.864Z,1007.8
2022-11-05T13:18:06.182Z,1007.9